WetterOnline ( https://www.wetteronline.de )

Wetter aktuell Magdeburg

Aktuelles Wetter: Magdeburg (85m)

6-stündlich | Neueste Meldungen
Ortszeit Temperatur Wetter
Sa, 20.04. 14:00 8.4° C bedeckt
Sa, 20.04. 8:00 4.7° C bewölkt
Sa, 20.04. 2:00 6.3° C bedeckt
Fr, 19.04. 20:00 6.9° C bewölkt
Fr, 19.04. 14:00 9.6° C bewölkt
Fr, 19.04. 8:00 6.3° C bewölkt
Fr, 19.04. 2:00 6.1° C bewölkt
Do, 18.04. 20:00 8.8° C bewölkt
Ortszeit Temperatur Wetter
Sa, 20.04. 19:00 5.5° C leicht bewölkt
Sa, 20.04. 18:50 5.5° C leicht bewölkt
Sa, 20.04. 18:40 5.6° C leichter Regen
Sa, 20.04. 18:30 5.6° C bewölkt
Sa, 20.04. 18:20 5.6° C leichter Regen
Sa, 20.04. 18:10 5.6° C leichter Regen
Sa, 20.04. 18:00 5.6° C bewölkt
Sa, 20.04. 17:30 5.8° C bedeckt
Sa, 20.04. 17:00 7.3° C bedeckt
Sa, 20.04. 16:30 7.9° C bewölkt
Sa, 20.04. 16:00 7.4° C wolkig
Ortszeit Relative Feuchte Sichtweite
Sa, 20.04. 14:00 53% 55 km
Sa, 20.04. 8:00 77% 60 km
Sa, 20.04. 2:00 88% 35 km
Fr, 19.04. 20:00 80% 45 km
Fr, 19.04. 14:00 75% >70 km
Fr, 19.04. 8:00 72% 55 km
Fr, 19.04. 2:00 85% 40 km
Do, 18.04. 20:00 65% >70 km
Ortszeit Relative Feuchte Sichtweite
Sa, 20.04. 19:00 84% 50 km
Sa, 20.04. 18:50 84% -
Sa, 20.04. 18:40 84% -
Sa, 20.04. 18:30 84% 40 km
Sa, 20.04. 18:20 84% -
Sa, 20.04. 18:10 84% -
Sa, 20.04. 18:00 84% 35 km
Sa, 20.04. 17:30 88% 40 km
Sa, 20.04. 17:00 70% 65 km
Sa, 20.04. 16:30 67% 45 km
Sa, 20.04. 16:00 68% 55 km
Ortszeit Niederschlagsmenge Niederschlagsart
Sa, 20.04. 14:00 0.1 l/m2 in 6 Std. Regen
Sa, 20.04. 8:00 0.7 l/m2 in 12 Std. Regen
Sa, 20.04. 2:00 0.4 l/m2 in 6 Std. Regen
Fr, 19.04. 20:00 5 l/m2 in 12 Std. Regen
Fr, 19.04. 14:00 2 l/m2 in 6 Std. Regen
Fr, 19.04. 8:00 0.8 l/m2 in 12 Std. Regen
Fr, 19.04. 2:00 0.1 l/m2 in 6 Std. Regen
Do, 18.04. 20:00 0.1 l/m2 in 12 Std. Regen
Ortszeit Niederschlagsmenge Niederschlagsart
Sa, 20.04. 19:00 0.1 l/m2 in 1 Std. Regen
Sa, 20.04. 18:50 keine Meldung -
Sa, 20.04. 18:40 keine Meldung -
Sa, 20.04. 18:30 0.1 l/m2 in 30 Min Schneeregen
Sa, 20.04. 18:20 keine Meldung -
Sa, 20.04. 18:10 keine Meldung -
Sa, 20.04. 18:00 0.5 l/m2 in 1 Std. Regen
Sa, 20.04. 17:30 0.5 l/m2 in 30 Min Schneeregen
Sa, 20.04. 17:00 <0.05 l/m2 in 1 Std. Regen
Sa, 20.04. 16:30 <0.05 l/m2 in 30 Min Schneeregen
Sa, 20.04. 16:00 <0.05 l/m2 in 1 Std. Regen
Ortszeit Stärke Spitze Richtung
km/h Bft. km/h Grad Sektor
Sa, 20.04. 14:00 11 2 35 350° N
Sa, 20.04. 8:00 14 3 40 360° N
Sa, 20.04. 2:00 19 3 37 340° N
Fr, 19.04. 20:00 9 2 37 270° W
Fr, 19.04. 14:00 18 3 40 260° W
Fr, 19.04. 8:00 18 3 36 220° SW
Fr, 19.04. 2:00 4 1 22 250° W
Do, 18.04. 20:00 7 2 36 270° W
Ortszeit Stärke Spitze Richtung
km/h Bft. km/h Grad Sektor
Sa, 20.04. 19:00 7 2 18 360° N
Sa, 20.04. 18:50 7 2 - 360° N
Sa, 20.04. 18:40 7 2 - 360° N
Sa, 20.04. 18:30 9 2 19 360° N
Sa, 20.04. 18:20 9 2 - 360° N
Sa, 20.04. 18:10 7 2 - 340° N
Sa, 20.04. 18:00 11 2 32 360° N
Sa, 20.04. 17:30 7 2 33 360° N
Sa, 20.04. 17:00 11 2 29 30° NO
Sa, 20.04. 16:30 13 3 28 340° N
Sa, 20.04. 16:00 18 3 32 270° W
Ortszeit Untergrenze Bedeckung Gattung
total tief tief mittel hoch
Sa, 20.04. 14:00 1050 m 8/8 8/8 - - -
Sa, 20.04. 8:00 930 m 7/8 7/8 - - -
Sa, 20.04. 2:00 360 m 8/8 8/8 - - -
Fr, 19.04. 20:00 900 m 7/8 7/8 - - -
Fr, 19.04. 14:00 540 m 7/8 7/8 - - -
Fr, 19.04. 8:00 1320 m 7/8 7/8 - - -
Fr, 19.04. 2:00 1080 m 7/8 7/8 - - -
Do, 18.04. 20:00 2100 m 8/8 7/8 - - -
Ortszeit Bedeckungsgrad in Achtel und Wolkenuntergrenze
Sa, 20.04. 19:00 1(870m) 3(1500m)
Sa, 20.04. 18:50 1(870m) 2(1050m) 3(1500m)
Sa, 20.04. 18:40 3
Sa, 20.04. 18:30 1(420m) 6(1230m) 7(1500m)
Sa, 20.04. 18:20 1(420m) 6(1230m) 7(1500m)
Sa, 20.04. 18:10 7
Sa, 20.04. 18:00 1(690m) 7(1110m) 7(1800m)
Sa, 20.04. 17:30 3(630m) 7(1050m) 8(1800m)
Sa, 20.04. 17:00 4(1050m) 7(1500m) 8(2100m)
Sa, 20.04. 16:30 3(870m) 6(1320m) 7(1800m)
Sa, 20.04. 16:00 2(1110m) 3(1380m) 5(1800m)
Ortszeit Luftdruck NN (hPa) Tendenz (hPa in 3 Std.)
Sa, 20.04. 14:00 1018 + 1,3
Sa, 20.04. 8:00 1013 + 4,3
Sa, 20.04. 2:00 1005 + 2,5
Fr, 19.04. 20:00 1002 + 0,4
Fr, 19.04. 14:00 1003 - 2,1
Fr, 19.04. 8:00 1008 - 3,6
Fr, 19.04. 2:00 1015 - 1,2
Do, 18.04. 20:00 1016 + 0,1
Ortszeit Luftdruck NN (hPa) Tendenz (hPa in 3 Std.)
Sa, 20.04. 19:00 1019 + 0,7
Sa, 20.04. 18:50 1019 keine Meldung
Sa, 20.04. 18:40 1019 keine Meldung
Sa, 20.04. 18:30 1019 + 1,0
Sa, 20.04. 18:20 1019 keine Meldung
Sa, 20.04. 18:10 1019 keine Meldung
Sa, 20.04. 18:00 1019 + 1,3
Sa, 20.04. 17:30 1019 + 1,1
Sa, 20.04. 17:00 1019 + 1,0
Sa, 20.04. 16:30 1018 + 1,2
Sa, 20.04. 16:00 1018 + 1,2
Ortszeit Schneehöhe (cm)
Sa, 20.04. 14:00 0
Sa, 20.04. 8:00 0
Sa, 20.04. 2:00 0
Fr, 19.04. 20:00 0
Fr, 19.04. 14:00 0
Fr, 19.04. 8:00 0
Fr, 19.04. 2:00 0
Do, 18.04. 20:00 0
Ortszeit Schneehöhe (cm)
Sa, 20.04. 19:00 0
Sa, 20.04. 18:50 0
Sa, 20.04. 18:40 -
Sa, 20.04. 18:30 0
Sa, 20.04. 18:20 0
Sa, 20.04. 18:10 -
Sa, 20.04. 18:00 0
Sa, 20.04. 17:30 0
Sa, 20.04. 17:00 0
Sa, 20.04. 16:30 0
Sa, 20.04. 16:00 0
Link zu dieser Seite / Seite empfehlen

Das Wetter in ...